createdAt,value
2023-03-05T00:00:55.967Z,999.04
2023-03-05T00:01:56.897Z,999.07
2023-03-05T00:02:56.924Z,999.05
2023-03-05T00:03:56.810Z,999.00
2023-03-05T00:06:05.972Z,999.01
2023-03-05T00:07:06.850Z,999.04
2023-03-05T00:08:06.791Z,999.00
2023-03-05T00:09:06.746Z,999.01
2023-03-05T00:10:06.680Z,999.02
2023-03-05T00:11:06.666Z,999.01
2023-03-05T00:12:06.585Z,999.04
2023-03-05T00:13:06.476Z,999.01
2023-03-05T00:14:06.551Z,999.00
2023-03-05T00:15:06.343Z,998.98
2023-03-05T00:16:06.373Z,998.96
2023-03-05T00:17:27.192Z,998.99
2023-03-05T00:18:06.167Z,998.99
2023-03-05T00:19:06.104Z,998.99
2023-03-05T00:20:06.032Z,998.99
2023-03-05T00:21:05.953Z,999.00
2023-03-05T00:22:05.948Z,999.00
2023-03-05T00:23:05.858Z,999.01
2023-03-05T00:24:05.782Z,998.95
2023-03-05T00:25:05.724Z,998.97
2023-03-05T00:26:05.638Z,998.96
2023-03-05T00:27:05.568Z,998.97
2023-03-05T00:28:05.536Z,998.99
2023-03-05T00:29:05.487Z,998.96
2023-03-05T00:30:05.437Z,998.94
2023-03-05T00:31:05.384Z,998.90
2023-03-05T00:32:05.306Z,998.87
2023-03-05T00:33:05.201Z,998.89
2023-03-05T00:34:05.185Z,998.96
2023-03-05T00:35:05.143Z,998.93
2023-03-05T00:36:05.088Z,998.91
2023-03-05T00:37:04.967Z,998.91
2023-03-05T00:38:04.929Z,998.89
2023-03-05T00:39:04.867Z,998.88
2023-03-05T00:40:04.832Z,998.85
2023-03-05T00:41:04.758Z,998.82
2023-03-05T00:42:04.653Z,998.87
2023-03-05T00:43:04.615Z,998.78
2023-03-05T00:44:04.500Z,998.76
2023-03-05T00:45:04.468Z,998.77
2023-03-05T00:46:04.404Z,998.74
2023-03-05T00:47:04.353Z,998.74
2023-03-05T00:48:04.280Z,998.72
2023-03-05T00:49:04.233Z,998.77
2023-03-05T00:50:04.146Z,998.71
2023-03-05T00:51:04.098Z,998.70
2023-03-05T00:52:03.994Z,998.70
2023-03-05T00:54:13.184Z,998.72
2023-03-05T00:55:14.129Z,998.66
2023-03-05T00:56:14.056Z,998.71
2023-03-05T00:57:14.018Z,998.69
2023-03-05T00:58:13.934Z,998.66
2023-03-05T00:59:13.894Z,998.62
2023-03-05T01:00:13.798Z,998.63
2023-03-05T01:01:13.728Z,998.61
2023-03-05T01:02:13.698Z,998.62
2023-03-05T01:03:13.607Z,998.59
2023-03-05T01:04:13.538Z,998.61
2023-03-05T01:05:13.501Z,998.58
2023-03-05T01:06:13.414Z,998.57
2023-03-05T01:07:13.351Z,998.52
2023-03-05T01:08:13.310Z,998.51
2023-03-05T01:09:13.195Z,998.52
2023-03-05T01:10:13.181Z,998.51
2023-03-05T01:11:34.100Z,998.52
2023-03-05T01:12:13.052Z,998.54
2023-03-05T01:13:13.014Z,998.52
2023-03-05T01:14:12.934Z,998.54
2023-03-05T01:15:12.863Z,998.54
2023-03-05T01:16:12.885Z,998.49
2023-03-05T01:17:12.722Z,998.47
2023-03-05T01:18:12.618Z,998.52
2023-03-05T01:19:12.610Z,998.48
2023-03-05T01:20:12.526Z,998.42
2023-03-05T01:21:12.434Z,998.44
2023-03-05T01:22:12.385Z,998.38
2023-03-05T01:23:12.346Z,998.35
2023-03-05T01:24:12.242Z,998.38
2023-03-05T01:25:12.197Z,998.31
2023-03-05T01:26:12.130Z,998.28
2023-03-05T01:27:12.070Z,998.26
2023-03-05T01:28:12.034Z,998.25
2023-03-05T01:29:11.986Z,998.25
2023-03-05T01:30:11.879Z,998.19
2023-03-05T01:31:11.883Z,998.18
2023-03-05T01:32:11.815Z,998.17
2023-03-05T01:33:11.691Z,998.18
2023-03-05T01:34:11.634Z,998.16
2023-03-05T01:35:11.572Z,998.14
2023-03-05T01:36:11.502Z,998.17
2023-03-05T01:37:11.438Z,998.14
2023-03-05T01:38:11.352Z,998.10
2023-03-05T01:39:11.311Z,998.11
2023-03-05T01:40:11.217Z,998.10
2023-03-05T01:41:11.177Z,998.12
2023-03-05T01:42:11.096Z,998.11
2023-03-05T01:43:11.095Z,998.10
2023-03-05T01:44:11.001Z,998.08
2023-03-05T01:45:10.944Z,998.06
2023-03-05T01:46:10.929Z,998.04
2023-03-05T01:47:10.872Z,998.00
2023-03-05T01:48:10.772Z,997.98
2023-03-05T01:49:10.684Z,997.98
2023-03-05T01:50:10.591Z,997.97
2023-03-05T01:51:10.527Z,997.96
2023-03-05T01:52:10.491Z,997.94
2023-03-05T01:53:10.442Z,997.92
2023-03-05T01:54:10.348Z,997.89
2023-03-05T01:55:10.299Z,997.88
2023-03-05T01:56:10.263Z,997.95
2023-03-05T01:57:10.154Z,997.90
2023-03-05T01:58:10.085Z,997.90
2023-03-05T01:59:10.055Z,997.87
2023-03-05T02:00:09.995Z,997.90
2023-03-05T02:01:09.979Z,997.89
2023-03-05T02:02:09.864Z,997.86
2023-03-05T02:03:09.830Z,997.85
2023-03-05T02:04:09.820Z,997.87
2023-03-05T02:05:30.673Z,997.80
2023-03-05T02:06:09.630Z,997.80
2023-03-05T02:07:09.544Z,997.88
2023-03-05T02:08:09.506Z,997.81
2023-03-05T02:09:09.417Z,997.83
2023-03-05T02:10:09.373Z,997.82
2023-03-05T02:11:09.331Z,997.80
2023-03-05T02:12:09.250Z,997.78
2023-03-05T02:13:09.135Z,997.81
2023-03-05T02:14:10.242Z,997.77
2023-03-05T02:15:09.013Z,997.77
2023-03-05T02:16:09.060Z,997.72
2023-03-05T02:17:08.936Z,997.72
2023-03-05T02:18:08.857Z,997.71
2023-03-05T02:19:08.816Z,997.69
2023-03-05T02:20:08.695Z,997.71
2023-03-05T02:21:08.663Z,997.68
2023-03-05T02:22:08.627Z,997.68
2023-03-05T02:23:29.489Z,997.68
2023-03-05T02:24:08.469Z,997.64
2023-03-05T02:25:08.404Z,997.60
2023-03-05T02:26:08.343Z,997.57
2023-03-05T02:27:08.309Z,997.58
2023-03-05T02:28:08.221Z,997.57
2023-03-05T02:29:08.172Z,997.57
2023-03-05T02:30:08.115Z,997.57
2023-03-05T02:31:08.060Z,997.54
2023-03-05T02:32:08.184Z,997.53
2023-03-05T02:33:07.920Z,997.53
2023-03-05T02:34:07.834Z,997.53
2023-03-05T02:35:07.826Z,997.47
2023-03-05T02:36:07.722Z,997.50
2023-03-05T02:37:07.645Z,997.46
2023-03-05T02:38:07.567Z,997.47
2023-03-05T02:39:07.551Z,997.44
2023-03-05T02:40:07.490Z,997.47
2023-03-05T02:42:16.663Z,997.43
2023-03-05T02:43:17.597Z,997.45
2023-03-05T02:44:17.508Z,997.45
2023-03-05T02:45:17.471Z,997.40
2023-03-05T02:46:17.501Z,997.37
2023-03-05T02:47:17.372Z,997.37
2023-03-05T02:48:17.305Z,997.41
2023-03-05T02:49:17.226Z,997.35
2023-03-05T02:50:17.184Z,997.38
2023-03-05T02:51:17.090Z,997.38
2023-03-05T02:52:17.023Z,997.39
2023-03-05T02:53:16.952Z,997.31
2023-03-05T02:54:16.877Z,997.33
2023-03-05T02:55:16.834Z,997.32
2023-03-05T02:56:16.776Z,997.31
2023-03-05T02:57:16.707Z,997.32
2023-03-05T02:58:16.621Z,997.28
2023-03-05T02:59:16.618Z,997.30
2023-03-05T03:00:16.595Z,997.23
2023-03-05T03:01:16.534Z,997.25
2023-03-05T03:02:16.395Z,997.25
2023-03-05T03:03:16.412Z,997.25
2023-03-05T03:04:16.294Z,997.26
2023-03-05T03:05:16.245Z,997.23
2023-03-05T03:06:16.137Z,997.22
2023-03-05T03:07:16.106Z,997.24
2023-03-05T03:08:16.019Z,997.17
2023-03-05T03:09:15.949Z,997.16
2023-03-05T03:10:15.862Z,997.13
2023-03-05T03:11:15.831Z,997.19
2023-03-05T03:12:15.763Z,997.16
2023-03-05T03:13:15.668Z,997.10
2023-03-05T03:14:15.662Z,997.12
2023-03-05T03:15:15.563Z,997.13
2023-03-05T03:16:15.529Z,997.11
2023-03-05T03:18:54.390Z,997.10
2023-03-05T03:19:55.351Z,997.04
2023-03-05T03:20:55.265Z,997.02
2023-03-05T03:21:55.239Z,997.09
2023-03-05T03:22:55.217Z,997.00
2023-03-05T03:23:55.141Z,996.97
2023-03-05T03:24:55.014Z,996.96
2023-03-05T03:25:54.976Z,996.95
2023-03-05T03:26:54.934Z,996.92
2023-03-05T03:27:54.845Z,996.94
2023-03-05T03:28:54.766Z,996.87
2023-03-05T03:29:54.756Z,996.85
2023-03-05T03:30:54.703Z,996.87
2023-03-05T03:31:54.597Z,996.90
2023-03-05T03:32:54.556Z,996.97
2023-03-05T03:33:54.463Z,996.99
2023-03-05T03:36:03.686Z,996.83
2023-03-05T03:37:04.629Z,996.86
2023-03-05T03:38:04.497Z,996.82
2023-03-05T03:39:04.481Z,996.86
2023-03-05T03:40:04.388Z,996.84
2023-03-05T03:41:04.369Z,996.82
2023-03-05T03:42:04.289Z,996.84
2023-03-05T03:43:04.230Z,996.78
2023-03-05T03:44:04.110Z,996.80
2023-03-05T03:45:04.051Z,996.80
2023-03-05T03:46:04.027Z,996.81
2023-03-05T03:47:03.965Z,996.74
2023-03-05T03:48:03.850Z,996.72
2023-03-05T03:49:03.815Z,996.69
2023-03-05T03:50:03.782Z,996.65
2023-03-05T03:51:03.664Z,996.66
2023-03-05T03:52:03.638Z,996.63
2023-03-05T03:53:03.608Z,996.68
2023-03-05T03:54:03.509Z,996.68
2023-03-05T03:55:03.462Z,996.68
2023-03-05T03:56:03.398Z,996.75
2023-03-05T03:57:03.317Z,996.74
2023-03-05T03:58:03.287Z,996.70
2023-03-05T03:59:03.211Z,996.66
2023-03-05T04:00:03.102Z,996.71
2023-03-05T04:01:03.056Z,996.65
2023-03-05T04:02:02.963Z,996.72
2023-03-05T04:03:02.944Z,996.68
2023-03-05T04:04:02.922Z,996.67
2023-03-05T04:05:02.839Z,996.67
2023-03-05T04:06:02.713Z,996.71
2023-03-05T04:07:02.679Z,996.67
2023-03-05T04:08:02.617Z,996.70
2023-03-05T04:09:02.523Z,996.65
2023-03-05T04:10:02.479Z,996.65
2023-03-05T04:12:41.386Z,996.56
2023-03-05T04:13:42.301Z,996.59
2023-03-05T04:14:42.267Z,996.52
2023-03-05T04:15:42.220Z,996.52
2023-03-05T04:16:42.140Z,996.49
2023-03-05T04:17:42.071Z,996.47
2023-03-05T04:18:42.038Z,996.48
2023-03-05T04:19:41.953Z,996.51
2023-03-05T04:20:41.887Z,996.44
2023-03-05T04:21:41.823Z,996.46
2023-03-05T04:22:41.768Z,996.50
2023-03-05T04:23:41.737Z,996.48
2023-03-05T04:24:41.608Z,996.43
2023-03-05T04:25:41.565Z,996.49
2023-03-05T04:26:41.508Z,996.47
2023-03-05T04:27:41.436Z,996.50
2023-03-05T04:28:41.397Z,996.46
2023-03-05T04:29:41.292Z,996.45
2023-03-05T04:30:41.221Z,996.48
2023-03-05T04:31:41.209Z,996.54
2023-03-05T04:32:41.144Z,996.45
2023-03-05T04:33:41.060Z,996.42
2023-03-05T04:34:40.990Z,996.40
2023-03-05T04:35:41.020Z,996.41
2023-03-05T04:36:40.838Z,996.37
2023-03-05T04:37:40.771Z,996.40
2023-03-05T04:38:40.717Z,996.37
2023-03-05T04:39:40.667Z,996.36
2023-03-05T04:40:40.613Z,996.37
2023-03-05T04:41:40.540Z,996.35
2023-03-05T04:42:40.480Z,996.35
2023-03-05T04:43:40.446Z,996.32
2023-03-05T04:44:40.368Z,996.29
2023-03-05T04:45:40.284Z,996.34
2023-03-05T04:46:40.244Z,996.32
2023-03-05T04:48:01.157Z,996.28
2023-03-05T04:48:40.122Z,996.28
2023-03-05T04:49:40.089Z,996.26
2023-03-05T04:50:40.046Z,996.22
2023-03-05T04:51:39.904Z,996.22
2023-03-05T04:52:39.813Z,996.18
2023-03-05T04:53:39.823Z,996.21
2023-03-05T04:54:39.724Z,996.20
2023-03-05T04:55:39.629Z,996.24
2023-03-05T04:56:39.586Z,996.19
2023-03-05T04:57:39.554Z,996.20
2023-03-05T04:58:39.459Z,996.19
2023-03-05T04:59:39.389Z,996.18
2023-03-05T05:00:39.358Z,996.18
2023-03-05T05:01:39.316Z,996.20
2023-03-05T05:02:39.228Z,996.17
2023-03-05T05:03:39.172Z,996.15
2023-03-05T05:04:39.087Z,996.13
2023-03-05T05:07:38.979Z,996.02
2023-03-05T05:08:18.926Z,996.07
2023-03-05T05:09:18.858Z,996.12
2023-03-05T05:10:18.800Z,996.05
2023-03-05T05:11:18.744Z,996.04
2023-03-05T05:12:18.697Z,996.08
2023-03-05T05:13:18.617Z,996.08
2023-03-05T05:14:18.575Z,996.03
2023-03-05T05:15:18.490Z,996.03
2023-03-05T05:16:18.423Z,996.00
2023-03-05T05:17:18.370Z,996.01
2023-03-05T05:18:18.322Z,995.96
2023-03-05T05:19:18.238Z,995.99
2023-03-05T05:20:18.171Z,995.96
2023-03-05T05:21:18.109Z,996.00
2023-03-05T05:22:18.070Z,995.98
2023-03-05T05:23:38.982Z,995.93
2023-03-05T05:24:17.923Z,995.93
2023-03-05T05:25:17.829Z,995.91
2023-03-05T05:26:17.802Z,995.94
2023-03-05T05:27:17.736Z,995.91
2023-03-05T05:28:17.694Z,995.93
2023-03-05T05:29:17.877Z,995.88
2023-03-05T05:30:17.527Z,995.85
2023-03-05T05:31:17.510Z,995.82
2023-03-05T05:32:17.431Z,995.84
2023-03-05T05:33:17.307Z,995.84
2023-03-05T05:34:17.265Z,995.81
2023-03-05T05:35:17.232Z,995.83
2023-03-05T05:36:17.143Z,995.85
2023-03-05T05:37:17.124Z,995.82
2023-03-05T05:38:17.046Z,995.83
2023-03-05T05:39:18.993Z,995.90
2023-03-05T05:40:16.867Z,995.86
2023-03-05T05:41:37.819Z,995.86
2023-03-05T05:42:16.716Z,995.91
2023-03-05T05:43:16.711Z,995.93
2023-03-05T05:44:16.623Z,995.95
2023-03-05T05:45:16.618Z,995.92
2023-03-05T05:46:16.564Z,995.89
2023-03-05T05:47:16.482Z,995.90
2023-03-05T05:48:16.370Z,995.84
2023-03-05T05:49:16.301Z,995.84
2023-03-05T05:50:16.271Z,995.84
2023-03-05T05:51:16.156Z,995.88
2023-03-05T05:52:16.122Z,995.91
2023-03-05T05:53:16.058Z,995.89
2023-03-05T05:54:16.011Z,995.89
2023-03-05T05:55:15.926Z,995.87
2023-03-05T05:56:15.840Z,995.86
2023-03-05T05:57:15.808Z,995.87
2023-03-05T05:58:15.739Z,995.93
2023-03-05T05:59:15.718Z,995.91
2023-03-05T06:00:15.604Z,995.86
2023-03-05T06:01:15.558Z,995.89
2023-03-05T06:02:15.565Z,995.91
2023-03-05T06:03:15.489Z,995.91
2023-03-05T06:04:15.346Z,995.90
2023-03-05T06:05:15.325Z,995.87
2023-03-05T06:06:15.213Z,995.82
2023-03-05T06:07:15.173Z,995.84
2023-03-05T06:08:15.146Z,995.85
2023-03-05T06:09:15.070Z,995.83
2023-03-05T06:10:15.008Z,995.87
2023-03-05T06:11:15.926Z,995.85
2023-03-05T06:12:14.895Z,995.81
2023-03-05T06:13:14.772Z,995.83
2023-03-05T06:14:14.755Z,995.89
2023-03-05T06:15:14.702Z,995.88
2023-03-05T06:16:14.611Z,995.82
2023-03-05T06:19:52.845Z,995.82
2023-03-05T06:20:53.810Z,995.86
2023-03-05T06:21:53.711Z,995.85
2023-03-05T06:22:53.642Z,995.85
2023-03-05T06:23:53.597Z,995.86
2023-03-05T06:24:53.544Z,995.89
2023-03-05T06:25:53.518Z,995.86
2023-03-05T06:26:53.401Z,995.84
2023-03-05T06:27:53.356Z,995.83
2023-03-05T06:28:53.269Z,995.84
2023-03-05T06:29:53.296Z,995.84
2023-03-05T06:30:53.253Z,995.84
2023-03-05T06:31:53.082Z,995.88
2023-03-05T06:32:53.042Z,995.84
2023-03-05T06:33:52.956Z,995.82
2023-03-05T06:34:52.892Z,995.82
2023-03-05T06:37:31.740Z,995.79
2023-03-05T06:38:32.664Z,995.84
2023-03-05T06:39:32.635Z,995.81
2023-03-05T06:40:32.549Z,995.86
2023-03-05T06:41:32.498Z,995.90
2023-03-05T06:42:32.441Z,995.87
2023-03-05T06:43:32.347Z,995.84
2023-03-05T06:44:32.270Z,995.82
2023-03-05T06:45:32.221Z,995.91
2023-03-05T06:46:32.183Z,995.89
2023-03-05T06:47:32.086Z,995.89
2023-03-05T06:48:32.019Z,995.88
2023-03-05T06:49:32.002Z,995.83
2023-03-05T06:50:31.930Z,995.82
2023-03-05T06:51:31.872Z,995.81
2023-03-05T06:52:31.756Z,995.84
2023-03-05T06:53:52.674Z,995.80
2023-03-05T06:54:31.658Z,995.82
2023-03-05T06:55:31.565Z,995.80
2023-03-05T06:56:31.586Z,995.84
2023-03-05T06:57:31.492Z,995.80
2023-03-05T06:58:31.402Z,995.84
2023-03-05T06:59:31.357Z,995.86
2023-03-05T07:00:31.334Z,995.80
2023-03-05T07:01:31.221Z,995.77
2023-03-05T07:02:31.159Z,995.83
2023-03-05T07:03:31.067Z,995.84
2023-03-05T07:04:30.999Z,995.81
2023-03-05T07:05:32.622Z,995.83
2023-03-05T07:06:30.903Z,995.82
2023-03-05T07:07:30.809Z,995.80
2023-03-05T07:08:30.745Z,995.75
2023-03-05T07:09:30.715Z,995.77
2023-03-05T07:10:30.729Z,995.76
2023-03-05T07:11:51.562Z,995.73
2023-03-05T07:12:30.497Z,995.80
2023-03-05T07:13:30.454Z,995.75
2023-03-05T07:14:30.390Z,995.73
2023-03-05T07:15:30.368Z,995.70
2023-03-05T07:16:30.266Z,995.74
2023-03-05T07:17:30.196Z,995.74
2023-03-05T07:18:30.145Z,995.70
2023-03-05T07:19:30.092Z,995.67
2023-03-05T07:20:30.015Z,995.64
2023-03-05T07:21:29.935Z,995.63
2023-03-05T07:22:29.916Z,995.66
2023-03-05T07:23:29.874Z,995.69
2023-03-05T07:24:29.795Z,995.71
2023-03-05T07:25:29.700Z,995.70
2023-03-05T07:26:29.612Z,995.67
2023-03-05T07:27:29.548Z,995.64
2023-03-05T07:28:29.485Z,995.63
2023-03-05T07:29:50.430Z,995.60
2023-03-05T07:30:29.424Z,995.66
2023-03-05T07:31:29.329Z,995.61
2023-03-05T07:32:29.335Z,995.61
2023-03-05T07:33:29.217Z,995.66
2023-03-05T07:34:29.136Z,995.68
2023-03-05T07:35:29.157Z,995.68
2023-03-05T07:36:29.026Z,995.66
2023-03-05T07:37:28.955Z,995.64
2023-03-05T07:38:28.906Z,995.68
2023-03-05T07:39:28.803Z,995.69
2023-03-05T07:40:28.827Z,995.63
2023-03-05T07:41:28.692Z,995.63
2023-03-05T07:42:28.655Z,995.59
2023-03-05T07:43:28.601Z,995.59
2023-03-05T07:44:28.541Z,995.51
2023-03-05T07:45:28.474Z,995.57
2023-03-05T07:46:28.401Z,995.52
2023-03-05T07:47:28.336Z,995.55
2023-03-05T07:48:28.259Z,995.51
2023-03-05T07:49:28.193Z,995.54
2023-03-05T07:50:28.110Z,995.50
2023-03-05T07:51:28.105Z,995.51
2023-03-05T07:52:28.038Z,995.48
2023-03-05T07:53:27.960Z,995.47
2023-03-05T07:54:27.870Z,995.41
2023-03-05T07:55:27.791Z,995.44
2023-03-05T07:56:27.796Z,995.42
2023-03-05T07:57:27.672Z,995.40
2023-03-05T07:58:27.608Z,995.48
2023-03-05T07:59:27.555Z,995.49
2023-03-05T08:00:27.512Z,995.44
2023-03-05T08:01:27.442Z,995.46
2023-03-05T08:02:27.430Z,995.46
2023-03-05T08:03:27.317Z,995.44
2023-03-05T08:04:27.284Z,995.42
2023-03-05T08:05:27.228Z,995.41
2023-03-05T08:06:27.135Z,995.38
2023-03-05T08:07:27.097Z,995.39
2023-03-05T08:08:27.034Z,995.38
2023-03-05T08:09:26.922Z,995.39
2023-03-05T08:10:26.905Z,995.35
2023-03-05T08:11:26.869Z,995.38
2023-03-05T08:12:26.762Z,995.42
2023-03-05T08:13:26.676Z,995.41
2023-03-05T08:14:26.661Z,995.42
2023-03-05T08:15:26.593Z,995.42
2023-03-05T08:16:26.502Z,995.38
2023-03-05T08:17:26.459Z,995.42
2023-03-05T08:18:26.385Z,995.40
2023-03-05T08:19:26.342Z,995.41
2023-03-05T08:20:26.293Z,995.39
2023-03-05T08:21:26.173Z,995.39
2023-03-05T08:22:26.128Z,995.35
2023-03-05T08:23:26.109Z,995.32
2023-03-05T08:24:25.989Z,995.31
2023-03-05T08:25:25.914Z,995.32
2023-03-05T08:26:25.877Z,995.33
2023-03-05T08:27:25.796Z,995.37
2023-03-05T08:28:25.783Z,995.32
2023-03-05T08:29:25.708Z,995.35
2023-03-05T08:30:25.661Z,995.31
2023-03-05T08:31:25.646Z,995.34
2023-03-05T08:32:25.576Z,995.33
2023-03-05T08:33:25.441Z,995.34
2023-03-05T08:34:25.388Z,995.37
2023-03-05T08:35:25.631Z,995.36
2023-03-05T08:36:25.253Z,995.37
2023-03-05T08:37:25.198Z,995.35
2023-03-05T08:38:25.157Z,995.35
2023-03-05T08:39:25.083Z,995.28
2023-03-05T08:40:25.000Z,995.31
2023-03-05T08:41:24.981Z,995.34
2023-03-05T08:42:24.909Z,995.38
2023-03-05T08:43:24.846Z,995.36
2023-03-05T08:44:24.749Z,995.28
2023-03-05T08:45:24.689Z,995.29
2023-03-05T08:46:24.641Z,995.30
2023-03-05T08:47:24.553Z,995.30
2023-03-05T08:48:24.501Z,995.29
2023-03-05T08:49:24.436Z,995.25
2023-03-05T08:50:24.447Z,995.25
2023-03-05T08:51:24.319Z,995.25
2023-03-05T08:52:24.258Z,995.25
2023-03-05T08:53:24.209Z,995.15
2023-03-05T08:54:24.123Z,995.15
2023-03-05T08:55:24.086Z,995.18
2023-03-05T08:56:24.002Z,995.19
2023-03-05T08:57:23.960Z,995.21
2023-03-05T08:58:23.896Z,995.20
2023-03-05T09:01:02.697Z,995.17
2023-03-05T09:02:03.645Z,995.15
2023-03-05T09:03:03.557Z,995.14
2023-03-05T09:04:03.496Z,995.12
2023-03-05T09:05:03.467Z,995.13
2023-03-05T09:06:03.363Z,995.19
2023-03-05T09:07:03.317Z,995.07
2023-03-05T09:08:03.248Z,995.10
2023-03-05T09:09:03.239Z,995.15
2023-03-05T09:10:03.097Z,995.09
2023-03-05T09:11:03.030Z,995.06
2023-03-05T09:12:03.021Z,995.04
2023-03-05T09:13:02.933Z,995.05
2023-03-05T09:14:02.898Z,995.12
2023-03-05T09:15:02.842Z,995.04
2023-03-05T09:16:02.778Z,995.04
2023-03-05T09:17:02.690Z,995.01
2023-03-05T09:18:02.634Z,994.96
2023-03-05T09:19:02.603Z,994.98
2023-03-05T09:20:02.500Z,994.95
2023-03-05T09:21:02.412Z,994.97
2023-03-05T09:22:02.370Z,994.94
2023-03-05T09:23:02.274Z,994.95
2023-03-05T09:24:02.262Z,994.97
2023-03-05T09:25:02.178Z,994.97
2023-03-05T09:26:02.138Z,995.00
2023-03-05T09:27:02.053Z,994.94
2023-03-05T09:28:02.039Z,994.97
2023-03-05T09:29:01.953Z,994.94
2023-03-05T09:30:01.875Z,994.90
2023-03-05T09:31:01.805Z,994.92
2023-03-05T09:32:01.881Z,994.87
2023-03-05T09:33:01.648Z,994.82
2023-03-05T09:34:01.640Z,994.81
2023-03-05T09:35:01.581Z,994.79
2023-03-05T09:36:22.489Z,994.79
2023-03-05T09:37:01.452Z,994.80
2023-03-05T09:38:01.334Z,994.81
2023-03-05T09:39:01.335Z,994.78
2023-03-05T09:40:01.215Z,994.75
2023-03-05T09:41:01.148Z,994.78
2023-03-05T09:42:01.162Z,994.78
2023-03-05T09:43:01.080Z,994.82
2023-03-05T09:44:00.988Z,994.80
2023-03-05T09:45:00.927Z,994.79
2023-03-05T09:46:00.997Z,994.79
2023-03-05T09:47:00.775Z,994.79
2023-03-05T09:48:00.761Z,994.69
2023-03-05T09:49:00.677Z,994.76
2023-03-05T09:50:00.590Z,994.75
2023-03-05T09:51:00.586Z,994.78
2023-03-05T09:52:00.493Z,994.77
2023-03-05T09:53:00.430Z,994.75
2023-03-05T09:54:02.690Z,994.76
2023-03-05T09:55:00.319Z,994.76
2023-03-05T09:56:00.216Z,994.69
2023-03-05T09:57:00.159Z,994.67
2023-03-05T09:58:00.103Z,994.76
2023-03-05T09:59:00.096Z,994.80
2023-03-05T10:00:00.021Z,994.78
2023-03-05T10:00:59.908Z,994.73
2023-03-05T10:01:59.849Z,994.77
2023-03-05T10:02:59.898Z,994.75
2023-03-05T10:03:59.878Z,994.73
2023-03-05T10:04:59.715Z,994.74
2023-03-05T10:05:59.727Z,994.70
2023-03-05T10:06:59.567Z,994.73
2023-03-05T10:07:59.493Z,994.70
2023-03-05T10:08:59.417Z,994.75
2023-03-05T10:09:59.376Z,994.70
2023-03-05T10:10:59.305Z,994.73
2023-03-05T10:11:59.255Z,994.77
2023-03-05T10:12:59.152Z,994.74
2023-03-05T10:13:59.094Z,994.77
2023-03-05T10:14:59.053Z,994.70
2023-03-05T10:15:58.990Z,994.70
2023-03-05T10:16:58.928Z,994.68
2023-03-05T10:17:58.876Z,994.71
2023-03-05T10:18:58.808Z,994.67
2023-03-05T10:19:58.758Z,994.68
2023-03-05T10:20:58.684Z,994.71
2023-03-05T10:21:58.647Z,994.69
2023-03-05T10:22:58.606Z,994.74
2023-03-05T10:23:58.508Z,994.72
2023-03-05T10:24:58.437Z,994.67
2023-03-05T10:25:58.375Z,994.72
2023-03-05T10:26:59.220Z,994.68
2023-03-05T10:27:58.248Z,994.63
2023-03-05T10:28:58.192Z,994.69
2023-03-05T10:29:58.152Z,994.66
2023-03-05T10:30:58.114Z,994.64
2023-03-05T10:31:58.182Z,994.61
2023-03-05T10:32:57.898Z,994.55
2023-03-05T10:33:57.889Z,994.51
2023-03-05T10:34:57.840Z,994.56
2023-03-05T10:35:57.834Z,994.54
2023-03-05T10:36:58.384Z,994.49
2023-03-05T10:37:57.607Z,994.44
2023-03-05T10:38:57.526Z,994.43
2023-03-05T10:39:57.484Z,994.40
2023-03-05T10:40:57.395Z,994.37
2023-03-05T10:41:57.409Z,994.34
2023-03-05T10:42:57.301Z,994.33
2023-03-05T10:43:57.251Z,994.33
2023-03-05T10:44:57.198Z,994.31
2023-03-05T10:45:57.183Z,994.34
2023-03-05T10:46:57.076Z,994.32
2023-03-05T10:47:57.010Z,994.33
2023-03-05T10:48:56.899Z,994.33
2023-03-05T10:49:56.867Z,994.31
2023-03-05T10:50:56.799Z,994.34
2023-03-05T10:51:56.709Z,994.33
2023-03-05T10:52:56.672Z,994.32
2023-03-05T10:53:56.624Z,994.32
2023-03-05T10:54:56.515Z,994.30
2023-03-05T10:55:56.453Z,994.26
2023-03-05T10:56:56.421Z,994.24
2023-03-05T10:57:56.337Z,994.31
2023-03-05T10:58:56.324Z,994.29
2023-03-05T10:59:56.247Z,994.27
2023-03-05T11:00:56.190Z,994.27
2023-03-05T11:01:56.102Z,994.26
2023-03-05T11:02:56.022Z,994.25
2023-03-05T11:03:55.979Z,994.25
2023-03-05T11:04:55.892Z,994.28
2023-03-05T11:07:34.714Z,994.22
2023-03-05T11:08:35.641Z,994.21
2023-03-05T11:09:35.581Z,994.24
2023-03-05T11:10:35.516Z,994.17
2023-03-05T11:11:35.472Z,994.17
2023-03-05T11:12:35.364Z,994.15
2023-03-05T11:13:35.332Z,994.17
2023-03-05T11:14:35.241Z,994.10
2023-03-05T11:15:35.291Z,994.10
2023-03-05T11:16:35.143Z,994.05
2023-03-05T11:17:35.065Z,994.09
2023-03-05T11:18:35.048Z,994.10
2023-03-05T11:19:34.980Z,994.10
2023-03-05T11:20:34.864Z,994.04
2023-03-05T11:21:34.881Z,994.03
2023-03-05T11:22:34.796Z,994.03
2023-03-05T11:23:55.667Z,993.97
2023-03-05T11:24:34.667Z,993.97
2023-03-05T11:25:34.606Z,993.96
2023-03-05T11:26:34.520Z,993.97
2023-03-05T11:27:34.479Z,993.97
2023-03-05T11:28:34.397Z,993.94
2023-03-05T11:29:34.364Z,993.93
2023-03-05T11:30:34.389Z,993.93
2023-03-05T11:31:34.205Z,993.95
2023-03-05T11:32:34.212Z,993.91
2023-03-05T11:33:34.077Z,993.96
2023-03-05T11:34:34.014Z,993.91
2023-03-05T11:35:34.013Z,993.91
2023-03-05T11:36:33.913Z,993.89
2023-03-05T11:37:33.853Z,993.87
2023-03-05T11:38:35.048Z,993.84
2023-03-05T11:39:33.730Z,993.82
2023-03-05T11:40:33.641Z,993.81
2023-03-05T11:41:33.574Z,993.79
2023-03-05T11:42:33.520Z,993.78
2023-03-05T11:43:33.459Z,993.83
2023-03-05T11:44:33.370Z,993.78
2023-03-05T11:45:33.311Z,993.81
2023-03-05T11:46:33.275Z,993.75
2023-03-05T11:47:34.072Z,993.76
2023-03-05T11:48:33.149Z,993.77
2023-03-05T11:49:35.254Z,993.75
2023-03-05T11:50:33.022Z,993.72
2023-03-05T11:51:32.991Z,993.73
2023-03-05T11:52:32.895Z,993.70
2023-03-05T11:53:32.860Z,993.68
2023-03-05T11:54:32.798Z,993.67
2023-03-05T11:55:32.711Z,993.61
2023-03-05T11:56:32.659Z,993.60
2023-03-05T11:57:32.563Z,993.58
2023-03-05T11:58:32.529Z,993.53
2023-03-05T11:59:32.491Z,993.55
2023-03-05T12:00:32.377Z,993.52
2023-03-05T12:01:32.314Z,993.42
2023-03-05T12:02:32.349Z,993.44
2023-03-05T12:03:32.212Z,993.48
2023-03-05T12:04:32.124Z,993.44
2023-03-05T12:05:32.094Z,993.46
2023-03-05T12:06:32.050Z,993.39
2023-03-05T12:07:31.989Z,993.35
2023-03-05T12:08:31.933Z,993.36
2023-03-05T12:09:31.866Z,993.34
2023-03-05T12:10:31.779Z,993.40
2023-03-05T12:11:31.738Z,993.37
2023-03-05T12:12:31.652Z,993.42
2023-03-05T12:13:31.569Z,993.39
2023-03-05T12:14:31.554Z,993.37
2023-03-05T12:15:31.455Z,993.34
2023-03-05T12:16:31.516Z,993.34
2023-03-05T12:17:52.326Z,993.27
2023-03-05T12:18:31.285Z,993.27
2023-03-05T12:19:31.221Z,993.29
2023-03-05T12:20:31.264Z,993.25
2023-03-05T12:21:31.075Z,993.25
2023-03-05T12:22:31.040Z,993.29
2023-03-05T12:23:30.962Z,993.25
2023-03-05T12:24:30.912Z,993.23
2023-03-05T12:25:30.820Z,993.23
2023-03-05T12:26:30.810Z,993.19
2023-03-05T12:27:30.724Z,993.22
2023-03-05T12:28:30.669Z,993.20
2023-03-05T12:29:30.584Z,993.21
2023-03-05T12:30:30.563Z,993.16
2023-03-05T12:31:30.551Z,993.13
2023-03-05T12:32:30.444Z,993.14
2023-03-05T12:33:30.322Z,993.12
2023-03-05T12:34:30.262Z,993.12
2023-03-05T12:35:30.316Z,993.15
2023-03-05T12:36:30.136Z,993.14
2023-03-05T12:37:30.102Z,993.11
2023-03-05T12:38:30.053Z,993.07
2023-03-05T12:39:29.965Z,993.11
2023-03-05T12:40:29.896Z,993.10
2023-03-05T12:41:31.553Z,993.04
2023-03-05T12:42:29.788Z,993.02
2023-03-05T12:43:29.759Z,992.98
2023-03-05T12:44:29.663Z,993.01
2023-03-05T12:45:29.601Z,993.00